Time;durP1;ratioP1;P1;durP2;ratioP2;P2;SDS_P1;SDS_P2;PMS_P1;PMS_P2;Temp;Humidity;BMP_temperature;BMP_pressure;BME280_temperature;BME280_humidity;BME280_pressure;Samples;Min_cycle;Max_cycle;Signal;HPM_P1;HPM_P2
2022/07/20 00:00:25;;;;;;;9.07;6.30;;;16.20;99.90;;;;;;8264761;28;20026;-80
2022/07/20 00:04:26;;;;;;;9.85;6.07;;;16.30;99.90;;;;;;8266424;28;20038;-81
2022/07/20 00:12:45;;;;;;;11.13;6.85;;;16.50;99.90;;;;;;8266018;28;20197;-80
2022/07/20 00:16:46;;;;;;;12.48;6.78;;;16.00;99.90;;;;;;8266191;28;20034;-81
2022/07/20 00:20:46;;;;;;;12.43;6.68;;;16.00;99.90;;;;;;8266235;28;20031;-81
2022/07/20 00:24:47;;;;;;;12.88;7.00;;;16.00;99.90;;;;;;8265147;28;20109;-81
2022/07/20 00:28:50;;;;;;;11.57;6.70;;;15.80;99.90;;;;;;8264754;28;20402;-81
2022/07/20 00:32:50;;;;;;;10.48;6.75;;;15.60;99.90;;;;;;8265771;28;20026;-81
2022/07/20 00:36:51;;;;;;;12.52;7.47;;;15.20;99.90;;;;;;8264296;28;20027;-81
2022/07/20 00:40:51;;;;;;;11.00;6.75;;;15.10;99.90;;;;;;8263909;28;20030;-80
2022/07/20 00:44:52;;;;;;;12.50;7.07;;;15.50;99.90;;;;;;8263869;28;20049;-81
2022/07/20 00:48:53;;;;;;;15.38;7.43;;;15.30;99.90;;;;;;8264576;28;20070;-81
2022/07/20 00:52:54;;;;;;;12.60;7.20;;;15.10;99.90;;;;;;8264880;28;20069;-81
2022/07/20 00:56:55;;;;;;;13.13;7.80;;;15.00;99.90;;;;;;8258220;28;20038;-81
2022/07/20 01:00:59;;;;;;;11.07;7.00;;;14.90;99.90;;;;;;8262950;28;20085;-81
2022/07/20 01:04:59;;;;;;;13.55;7.75;;;14.80;99.90;;;;;;8262516;28;20026;-81
2022/07/20 01:09:00;;;;;;;10.60;7.25;;;15.00;99.90;;;;;;8262218;28;20029;-81
2022/07/20 01:13:00;;;;;;;12.77;8.07;;;14.90;99.90;;;;;;8262904;28;20027;-81
2022/07/20 01:17:01;;;;;;;15.43;8.02;;;14.80;99.90;;;;;;8264731;28;20046;-81
2022/07/20 01:21:10;;;;;;;10.77;7.28;;;14.80;99.90;;;;;;8262226;28;20109;-81
2022/07/20 01:25:11;;;;;;;13.93;7.72;;;14.70;99.90;;;;;;8258043;28;20048;-81
2022/07/20 01:29:13;;;;;;;11.30;7.53;;;14.70;99.90;;;;;;8263800;28;20018;-81
2022/07/20 01:33:14;;;;;;;10.50;6.78;;;14.70;99.90;;;;;;8263975;28;20534;-81
2022/07/20 01:37:14;;;;;;;13.57;7.20;;;14.80;99.90;;;;;;8262885;28;20057;-80
2022/07/20 01:41:15;;;;;;;12.23;7.10;;;14.70;99.90;;;;;;8262066;28;20030;-81
2022/07/20 01:45:18;;;;;;;11.55;7.47;;;14.40;99.90;;;;;;8262009;28;20026;-81
2022/07/20 01:49:19;;;;;;;11.10;6.82;;;14.40;99.90;;;;;;8261978;28;20105;-80
2022/07/20 01:53:20;;;;;;;11.95;7.40;;;14.40;99.90;;;;;;8263265;28;20482;-81
2022/07/20 01:57:20;;;;;;;12.05;7.15;;;14.40;99.90;;;;;;8261088;28;20040;-81
2022/07/20 02:01:21;;;;;;;13.75;7.68;;;14.50;99.90;;;;;;8261020;28;20030;-81
2022/07/20 02:05:21;;;;;;;10.18;7.13;;;14.50;99.90;;;;;;8261193;28;20085;-81
2022/07/20 02:09:22;;;;;;;11.10;7.25;;;14.30;99.90;;;;;;8261254;28;20023;-80
2022/07/20 02:13:23;;;;;;;13.77;7.63;;;14.20;99.90;;;;;;8262034;28;20479;-81
2022/07/20 02:17:23;;;;;;;9.23;6.90;;;14.00;99.90;;;;;;8260760;28;20018;-80
2022/07/20 02:21:24;;;;;;;11.75;7.50;;;13.90;99.90;;;;;;8261236;28;20026;-81
2022/07/20 02:25:25;;;;;;;16.58;7.60;;;13.80;99.90;;;;;;8260701;28;20072;-81
2022/07/20 02:29:25;;;;;;;11.02;7.70;;;14.00;99.90;;;;;;8260628;28;20022;-80
2022/07/20 02:33:26;;;;;;;15.02;8.00;;;13.80;99.90;;;;;;8260768;28;20510;-81
2022/07/20 02:37:26;;;;;;;11.98;7.97;;;13.50;99.90;;;;;;8262459;28;20854;-81
2022/07/20 02:41:27;;;;;;;12.93;7.43;;;13.40;99.90;;;;;;8259827;28;20022;-81
2022/07/20 02:45:27;;;;;;;14.13;7.50;;;13.50;99.90;;;;;;8255939;28;20042;-81
2022/07/20 02:49:28;;;;;;;13.30;7.57;;;13.70;99.90;;;;;;8259656;28;20018;-81
2022/07/20 02:53:29;;;;;;;13.13;7.45;;;13.50;99.90;;;;;;8260287;28;20394;-80
2022/07/20 02:57:29;;;;;;;12.73;7.50;;;13.60;99.90;;;;;;8259080;28;20038;-80
2022/07/20 03:01:30;;;;;;;15.57;8.73;;;13.40;99.90;;;;;;8258469;28;20026;-80
2022/07/20 03:05:30;;;;;;;12.40;8.40;;;13.30;99.90;;;;;;8259216;28;20497;-82
2022/07/20 03:09:31;;;;;;;13.75;7.82;;;13.40;99.90;;;;;;8259494;28;20046;-81
2022/07/20 03:13:32;;;;;;;12.07;8.43;;;13.20;99.90;;;;;;8259016;28;20065;-80
2022/07/20 03:17:39;;;;;;;13.80;8.73;;;13.10;99.90;;;;;;8259224;28;20028;-80
2022/07/20 03:21:40;;;;;;;15.65;8.65;;;13.20;99.90;;;;;;8258238;28;20375;-80
2022/07/20 03:25:40;;;;;;;12.52;8.25;;;13.40;99.90;;;;;;8259543;28;20019;-80
2022/07/20 03:29:41;;;;;;;12.23;8.00;;;13.60;99.90;;;;;;8259318;28;20518;-81
2022/07/20 03:33:42;;;;;;;11.98;8.07;;;13.40;99.90;;;;;;8264290;28;20149;-80
2022/07/20 03:37:43;;;;;;;14.10;8.43;;;13.10;99.90;;;;;;8266311;28;20105;-81
2022/07/20 03:41:43;;;;;;;12.27;8.50;;;13.00;99.90;;;;;;8263285;28;20045;-80
2022/07/20 03:45:44;;;;;;;13.60;8.60;;;13.10;99.90;;;;;;8259539;28;20030;-80
2022/07/20 03:49:45;;;;;;;11.93;8.13;;;12.90;99.90;;;;;;8257673;28;20181;-81
2022/07/20 03:53:46;;;;;;;11.48;8.10;;;12.70;99.90;;;;;;8262980;28;20038;-80
2022/07/20 03:57:46;;;;;;;12.82;8.80;;;12.60;99.90;;;;;;8262934;28;20042;-80
2022/07/20 04:01:47;;;;;;;11.75;8.27;;;12.80;99.90;;;;;;8264800;28;20030;-80
2022/07/20 04:05:47;;;;;;;11.18;7.80;;;13.00;99.90;;;;;;8264038;28;20049;-81
2022/07/20 04:09:48;;;;;;;14.98;7.90;;;13.30;99.90;;;;;;8263780;28;20026;-81
2022/07/20 04:13:49;;;;;;;14.63;8.20;;;13.80;99.90;;;;;;8260385;28;20041;-81
2022/07/20 04:17:49;;;;;;;10.18;7.43;;;14.10;99.90;;;;;;8261931;28;20022;-81
2022/07/20 04:21:50;;;;;;;12.55;7.88;;;14.20;99.90;;;;;;8263381;28;20097;-80
2022/07/20 04:25:50;;;;;;;13.38;7.60;;;14.30;99.90;;;;;;8263240;28;20117;-81
2022/07/20 04:29:51;;;;;;;11.98;8.00;;;14.30;99.90;;;;;;8262750;28;20476;-80
2022/07/20 04:33:51;;;;;;;11.70;8.02;;;14.50;99.90;;;;;;8260216;28;20478;-81
2022/07/20 04:37:52;;;;;;;12.45;7.43;;;15.10;99.90;;;;;;8263438;28;20019;-81
2022/07/20 04:41:52;;;;;;;11.60;8.15;;;15.50;99.90;;;;;;8262475;28;20030;-80
2022/07/20 04:45:53;;;;;;;13.95;8.75;;;16.10;99.90;;;;;;8263009;28;20042;-81
2022/07/20 04:49:53;;;;;;;10.93;8.05;;;16.20;99.90;;;;;;8263035;28;20509;-80
2022/07/20 04:53:54;;;;;;;15.40;8.85;;;16.50;99.90;;;;;;8261996;28;20046;-81
2022/07/20 04:57:54;;;;;;;13.18;8.98;;;17.10;99.90;;;;;;8258461;28;20045;-81
2022/07/20 05:01:55;;;;;;;13.65;8.23;;;17.90;99.90;;;;;;8260645;28;20033;-81
2022/07/20 05:05:55;;;;;;;14.02;8.48;;;18.70;99.90;;;;;;8260363;28;20022;-84
2022/07/20 05:09:56;;;;;;;10.15;7.75;;;19.70;99.90;;;;;;8261087;28;20033;-85
2022/07/20 05:13:56;;;;;;;12.05;8.55;;;20.40;99.90;;;;;;8260798;28;20041;-84
2022/07/20 05:17:57;;;;;;;12.15;8.85;;;21.00;99.90;;;;;;8260572;28;20022;-84
2022/07/20 05:21:57;;;;;;;12.93;9.32;;;21.10;99.90;;;;;;8259918;28;20038;-84
2022/07/20 05:25:58;;;;;;;14.77;9.32;;;20.80;99.90;;;;;;8259759;28;20034;-84
2022/07/20 05:29:58;;;;;;;14.00;9.70;;;21.20;99.90;;;;;;8260469;28;20023;-84
2022/07/20 05:33:59;;;;;;;13.20;9.20;;;21.50;99.90;;;;;;8261453;28;20040;-84
2022/07/20 05:38:00;;;;;;;13.05;9.10;;;22.20;99.90;;;;;;8262265;28;20038;-85
2022/07/20 05:42:00;;;;;;;13.55;9.23;;;22.40;99.90;;;;;;8253930;28;20114;-84
2022/07/20 05:46:01;;;;;;;12.93;9.10;;;22.90;99.90;;;;;;8260964;28;20410;-86
2022/07/20 05:50:02;;;;;;;11.38;9.38;;;23.80;99.90;;;;;;8259918;28;20053;-86
2022/07/20 05:54:03;;;;;;;13.70;8.38;;;24.30;99.90;;;;;;8261007;28;20568;-85
2022/07/20 05:58:04;;;;;;;14.60;9.20;;;25.20;99.90;;;;;;8256547;28;20042;-85
2022/07/20 06:02:05;;;;;;;13.25;8.85;;;25.90;99.90;;;;;;8259152;28;20030;-85
2022/07/20 06:06:06;;;;;;;15.10;8.45;;;26.20;99.90;;;;;;8260071;28;20085;-84
2022/07/20 06:10:07;;;;;;;10.57;8.35;;;27.00;98.50;;;;;;8259469;28;20784;-85
2022/07/20 06:14:08;;;;;;;13.10;8.50;;;26.70;97.50;;;;;;8257367;28;20502;-85
2022/07/20 06:18:09;;;;;;;13.23;8.25;;;26.70;97.80;;;;;;8259476;28;20030;-85
2022/07/20 06:22:09;;;;;;;13.10;8.93;;;26.70;98.50;;;;;;8259032;28;20457;-85
2022/07/20 06:26:10;;;;;;;13.32;8.38;;;26.80;97.00;;;;;;8259129;28;20509;-85
2022/07/20 06:30:12;;;;;;;9.60;8.15;;;27.30;96.60;;;;;;8260571;28;20049;-84
2022/07/20 06:34:13;;;;;;;11.15;8.38;;;27.80;95.70;;;;;;8259356;28;20030;-85
2022/07/20 06:38:13;;;;;;;11.20;8.32;;;27.80;95.20;;;;;;8260755;28;20379;-86
2022/07/20 06:42:15;;;;;;;11.23;6.93;;;28.30;97.10;;;;;;8260100;28;20101;-86
2022/07/20 06:46:15;;;;;;;11.23;6.57;;;28.70;90.70;;;;;;8258783;28;20042;-85
2022/07/20 06:50:16;;;;;;;11.52;6.80;;;29.20;91.80;;;;;;8259948;28;20055;-85
2022/07/20 06:54:16;;;;;;;14.23;7.30;;;30.00;82.60;;;;;;8258778;28;20041;-84
2022/07/20 06:58:17;;;;;;;12.52;7.00;;;30.50;80.20;;;;;;8253513;28;20041;-83
2022/07/20 07:02:17;;;;;;;12.60;8.02;;;30.50;79.50;;;;;;8260274;28;20035;-82
2022/07/20 07:06:18;;;;;;;9.40;6.70;;;30.00;80.00;;;;;;8258710;28;20025;-82
2022/07/20 07:10:18;;;;;;;10.63;7.10;;;30.40;79.80;;;;;;8257665;28;20434;-83
2022/07/20 07:14:19;;;;;;;9.80;6.45;;;30.90;76.70;;;;;;8258621;28;20482;-82
2022/07/20 07:18:20;;;;;;;9.57;6.95;;;31.10;83.30;;;;;;8258784;28;20049;-81
2022/07/20 07:22:20;;;;;;;10.98;6.70;;;30.90;81.20;;;;;;8259057;28;20023;-83
2022/07/20 07:26:21;;;;;;;13.48;6.72;;;31.00;80.90;;;;;;8256830;28;20045;-83
2022/07/20 07:30:22;;;;;;;11.13;7.05;;;31.20;81.30;;;;;;8257252;28;20022;-82
2022/07/20 07:34:23;;;;;;;8.65;6.57;;;31.50;73.10;;;;;;8257108;28;20037;-82
2022/07/20 07:38:23;;;;;;;12.63;6.88;;;31.40;73.50;;;;;;8258991;28;20049;-82
2022/07/20 07:42:24;;;;;;;10.18;6.95;;;31.40;75.30;;;;;;8257368;28;20113;-81
2022/07/20 07:46:24;;;;;;;13.13;6.80;;;31.60;74.40;;;;;;8258067;28;20549;-82
2022/07/20 07:50:25;;;;;;;9.10;6.57;;;31.90;74.00;;;;;;8257128;28;20015;-82
2022/07/20 07:54:26;;;;;;;10.80;7.00;;;32.30;71.20;;;;;;8258108;28;20537;-82
2022/07/20 07:58:26;;;;;;;7.88;6.53;;;32.30;70.80;;;;;;8253965;28;20120;-82
2022/07/20 08:02:27;;;;;;;10.95;6.57;;;32.40;73.40;;;;;;8253369;28;20383;-82
2022/07/20 08:06:27;;;;;;;9.75;6.60;;;32.60;67.90;;;;;;8256265;28;20344;-82
2022/07/20 08:10:28;;;;;;;8.70;6.90;;;33.00;71.00;;;;;;8256503;28;20028;-82
2022/07/20 08:14:28;;;;;;;11.35;7.45;;;32.90;70.90;;;;;;8258088;28;20073;-82
2022/07/20 08:18:29;;;;;;;9.65;6.60;;;33.10;70.30;;;;;;8257890;28;20030;-82
2022/07/20 08:22:29;;;;;;;9.93;7.47;;;33.20;66.90;;;;;;8262389;28;20380;-82
2022/07/20 08:26:33;;;;;;;10.75;7.40;;;33.20;67.70;;;;;;8263394;28;20035;-82
2022/07/20 08:30:33;;;;;;;8.57;7.03;;;33.20;66.70;;;;;;8260254;28;20041;-81
2022/07/20 08:34:34;;;;;;;11.05;7.18;;;33.00;65.10;;;;;;8260703;28;20368;-82
2022/07/20 08:38:34;;;;;;;10.13;7.35;;;32.80;65.70;;;;;;8260216;28;20106;-82
2022/07/20 08:42:35;;;;;;;11.25;6.45;;;32.60;68.50;;;;;;8261773;28;20049;-82
2022/07/20 08:46:37;;;;;;;9.35;6.60;;;33.00;66.50;;;;;;8263464;28;20546;-82
2022/07/20 08:50:37;;;;;;;7.45;5.72;;;33.00;67.10;;;;;;8263689;28;20436;-82
2022/07/20 08:54:38;;;;;;;9.82;6.63;;;33.50;67.00;;;;;;8260944;28;20034;-82
2022/07/20 08:58:40;;;;;;;10.63;6.57;;;33.50;64.50;;;;;;8261858;28;20034;-82
2022/07/20 09:03:01;;;;;;;9.40;6.80;;;33.30;67.20;;;;;;8253569;28;20027;-83
2022/07/20 09:07:02;;;;;;;13.13;6.93;;;33.30;67.10;;;;;;8256575;28;20372;-82
2022/07/20 09:11:03;;;;;;;9.07;6.47;;;32.70;68.20;;;;;;8261132;28;20118;-82
2022/07/20 09:15:04;;;;;;;14.98;6.82;;;32.50;67.40;;;;;;8258120;28;20112;-83
2022/07/20 09:19:05;;;;;;;8.45;6.55;;;32.50;66.80;;;;;;8262160;28;20092;-82
2022/07/20 09:23:19;;;;;;;11.32;6.65;;;32.50;70.00;;;;;;8257544;28;20022;-83
2022/07/20 09:27:19;;;;;;;10.88;7.03;;;33.00;69.40;;;;;;8250900;28;20104;-82
2022/07/20 09:31:49;;;;;;;10.02;6.45;;;33.50;66.80;;;;;;8255433;28;20026;-82
2022/07/20 09:35:50;;;;;;;9.48;6.57;;;33.60;72.30;;;;;;8246505;28;20034;-83
2022/07/20 09:40:00;;;;;;;14.23;7.00;;;33.80;65.60;;;;;;8257661;28;20132;-81
2022/07/20 09:44:04;;;;;;;10.25;6.75;;;34.00;63.80;;;;;;8249756;28;20023;-82
2022/07/20 09:48:09;;;;;;;11.25;7.10;;;33.90;63.10;;;;;;8255995;28;20025;-81
2022/07/20 09:52:13;;;;;;;11.57;7.00;;;33.70;62.80;;;;;;8251087;28;20494;-82
2022/07/20 09:56:16;;;;;;;10.20;6.60;;;33.90;68.40;;;;;;8257683;28;20030;-82
2022/07/20 10:00:18;;;;;;;9.88;6.35;;;34.20;61.10;;;;;;8259375;28;20081;-82
2022/07/20 10:04:20;;;;;;;12.38;6.57;;;34.40;64.20;;;;;;8259101;28;20510;-82
2022/07/20 10:08:23;;;;;;;10.95;7.20;;;34.80;63.10;;;;;;8261165;28;20018;-82
2022/07/20 10:12:23;;;;;;;9.05;6.70;;;35.40;60.50;;;;;;8260702;28;20049;-82
2022/07/20 10:16:45;;;;;;;12.50;6.70;;;35.50;60.40;;;;;;8259079;28;20033;-82
2022/07/20 10:20:46;;;;;;;8.88;6.22;;;35.30;58.60;;;;;;8258857;28;20053;-82
2022/07/20 10:24:47;;;;;;;9.40;6.30;;;35.70;58.30;;;;;;8258628;28;20037;-82
2022/07/20 10:28:58;;;;;;;9.98;7.00;;;36.00;60.30;;;;;;8258369;28;20030;-82
2022/07/20 10:32:59;;;;;;;8.80;6.00;;;36.30;57.20;;;;;;8258690;28;20026;-82
2022/07/20 10:37:27;;;;;;;9.02;5.20;;;36.20;55.70;;;;;;8259900;28;20109;-82
2022/07/20 10:41:36;;;;;;;8.82;5.60;;;36.00;58.00;;;;;;8254580;28;20050;-82
2022/07/20 10:45:36;;;;;;;8.20;5.50;;;36.10;53.60;;;;;;8257641;28;20030;-82
2022/07/20 10:50:03;;;;;;;8.52;6.03;;;36.40;53.50;;;;;;8257066;28;20089;-82
2022/07/20 10:54:33;;;;;;;13.68;6.03;;;37.60;53.60;;;;;;8259649;28;20402;-82
2022/07/20 10:58:36;;;;;;;8.80;6.07;;;37.50;54.40;;;;;;8251483;28;20045;-82
2022/07/20 11:02:37;;;;;;;8.90;6.45;;;38.20;51.90;;;;;;8277209;28;20238;-82
2022/07/20 11:06:40;;;;;;;8.02;5.45;;;36.80;53.10;;;;;;8258280;28;20487;-82
2022/07/20 11:10:41;;;;;;;10.00;5.80;;;37.90;51.20;;;;;;8258117;28;20023;-83
2022/07/20 11:14:52;;;;;;;7.63;5.68;;;39.50;50.00;;;;;;8258709;28;20034;-82
2022/07/20 11:18:53;;;;;;;11.50;6.13;;;39.40;48.20;;;;;;8256105;28;20534;-82
2022/07/20 11:22:56;;;;;;;8.23;5.50;;;39.10;46.50;;;;;;8258395;28;20031;-81
2022/07/20 11:26:57;;;;;;;7.82;5.43;;;38.00;48.40;;;;;;8257757;28;20573;-82
2022/07/20 11:30:59;;;;;;;7.65;5.00;;;38.90;46.60;;;;;;8255866;28;20018;-82
2022/07/20 11:35:02;;;;;;;9.73;5.68;;;39.70;46.40;;;;;;8256533;28;20074;-82
2022/07/20 11:39:05;;;;;;;6.20;5.60;;;39.70;45.30;;;;;;8256799;28;20034;-82
2022/07/20 11:43:15;;;;;;;8.43;5.55;;;40.30;45.40;;;;;;8255688;28;20026;-82
2022/07/20 11:47:16;;;;;;;5.85;5.25;;;40.70;45.10;;;;;;8257234;28;20586;-82
2022/07/20 11:51:17;;;;;;;11.45;5.45;;;41.50;43.60;;;;;;8256251;28;20027;-82
2022/07/20 11:55:32;;;;;;;9.80;5.20;;;41.90;42.30;;;;;;8263839;28;20116;-82
2022/07/20 11:59:42;;;;;;;9.80;5.57;;;42.00;41.50;;;;;;8262977;28;20034;-82
2022/07/20 12:03:47;;;;;;;9.75;6.22;;;42.10;41.40;;;;;;8262526;28;20034;-82
2022/07/20 12:12:44;;;;;;;9.17;5.53;;;42.10;40.40;;;;;;8263861;28;20048;-82
2022/07/20 12:16:45;;;;;;;7.75;5.00;;;42.70;39.10;;;;;;8259596;28;20607;-82
2022/07/20 12:20:58;;;;;;;9.18;5.53;;;42.10;38.80;;;;;;8256528;28;20372;-82
2022/07/20 12:25:08;;;;;;;8.25;5.63;;;42.90;40.00;;;;;;8262744;28;20311;-81
2022/07/20 12:29:23;;;;;;;9.55;5.75;;;43.20;40.10;;;;;;8263243;28;20018;-82
2022/07/20 12:33:23;;;;;;;11.07;5.57;;;43.40;38.00;;;;;;8253222;28;20064;-82
2022/07/20 12:37:44;;;;;;;10.18;5.38;;;44.00;36.60;;;;;;8247711;28;20451;-80
2022/07/20 12:42:09;;;;;;;8.30;5.43;;;43.90;36.50;;;;;;8257520;28;20242;-81
2022/07/20 12:46:13;;;;;;;6.38;5.65;;;43.90;37.50;;;;;;8254044;28;20022;-79
2022/07/20 12:50:14;;;;;;;8.93;5.82;;;42.40;38.00;;;;;;8255133;28;20023;-80
2022/07/20 12:54:15;;;;;;;7.95;5.53;;;41.90;37.90;;;;;;8261734;28;21330;-80
2022/07/20 12:58:15;;;;;;;8.13;5.47;;;43.80;38.40;;;;;;8250271;28;20414;-80
2022/07/20 13:02:18;;;;;;;6.93;5.35;;;44.80;36.70;;;;;;8259669;28;20030;-80
2022/07/20 13:06:18;;;;;;;6.75;5.10;;;45.00;34.50;;;;;;8255238;28;20030;-80
2022/07/20 13:10:19;;;;;;;8.50;4.97;;;45.10;34.20;;;;;;8256839;28;20080;-80
2022/07/20 13:14:22;;;;;;;7.57;4.80;;;45.80;31.90;;;;;;8259465;28;20038;-80
2022/07/20 13:18:23;;;;;;;7.03;4.63;;;45.90;32.40;;;;;;8262156;28;20030;-80
2022/07/20 13:22:24;;;;;;;5.72;5.15;;;46.10;30.20;;;;;;8260088;28;20042;-80
2022/07/20 13:26:24;;;;;;;6.80;5.30;;;45.90;31.40;;;;;;8260856;28;20141;-80
2022/07/20 13:30:26;;;;;;;6.78;4.75;;;45.80;29.60;;;;;;8255084;28;20224;-80
2022/07/20 13:34:26;;;;;;;6.65;4.95;;;45.50;32.20;;;;;;8261274;28;20053;-80
2022/07/20 13:38:27;;;;;;;10.90;5.55;;;46.40;31.00;;;;;;8262241;28;20030;-79
2022/07/20 13:42:27;;;;;;;6.57;4.90;;;45.50;31.60;;;;;;8260824;28;20465;-79
2022/07/20 13:46:29;;;;;;;5.95;5.40;;;45.10;31.00;;;;;;8260658;28;20018;-80
2022/07/20 13:50:29;;;;;;;5.68;5.10;;;45.30;29.90;;;;;;8260077;28;20106;-80
2022/07/20 13:54:30;;;;;;;6.70;5.47;;;45.00;31.40;;;;;;8261528;28;20510;-81
2022/07/20 13:58:36;;;;;;;7.93;5.53;;;46.20;30.20;;;;;;8257271;28;20080;-80
2022/07/20 14:02:38;;;;;;;8.23;5.10;;;46.30;29.00;;;;;;8259487;28;20038;-80
2022/07/20 14:06:40;;;;;;;6.07;5.25;;;46.10;30.90;;;;;;8259542;28;20041;-80
2022/07/20 14:10:40;;;;;;;7.32;5.35;;;46.50;29.40;;;;;;8259231;28;20034;-80
2022/07/20 14:14:41;;;;;;;7.35;5.63;;;47.40;29.90;;;;;;8258172;28;20035;-80
2022/07/20 14:18:42;;;;;;;8.88;5.88;;;47.90;29.10;;;;;;8256958;28;20042;-79
2022/07/20 14:22:42;;;;;;;7.70;5.78;;;44.30;33.30;;;;;;8259783;28;20038;-79
2022/07/20 14:26:43;;;;;;;6.38;5.70;;;41.30;36.80;;;;;;8257699;28;20030;-78
2022/07/20 14:30:44;;;;;;;7.93;5.85;;;41.60;35.20;;;;;;8259924;28;20026;-79
2022/07/20 14:34:45;;;;;;;11.43;6.32;;;41.50;38.10;;;;;;8255546;28;20062;-80
2022/07/20 14:38:45;;;;;;;9.77;6.07;;;40.60;37.40;;;;;;8253965;28;20038;-80
2022/07/20 14:42:46;;;;;;;8.30;6.30;;;40.40;35.80;;;;;;8256343;28;20121;-80
2022/07/20 14:46:47;;;;;;;8.48;5.63;;;40.90;38.40;;;;;;8258431;28;20066;-80
2022/07/20 14:50:47;;;;;;;6.38;5.75;;;41.20;36.00;;;;;;8256178;28;20037;-80
2022/07/20 14:54:48;;;;;;;6.50;5.40;;;41.60;35.40;;;;;;8258105;28;20062;-79
2022/07/20 14:58:48;;;;;;;6.25;5.65;;;41.10;38.00;;;;;;8257741;28;20395;-79
2022/07/20 15:02:49;;;;;;;6.55;5.82;;;41.10;37.60;;;;;;8257314;28;20037;-79
2022/07/20 15:06:49;;;;;;;6.28;5.70;;;42.00;36.90;;;;;;8257356;28;20026;-80
2022/07/20 15:10:54;;;;;;;7.75;5.55;;;43.20;34.80;;;;;;8256357;28;20442;-80
2022/07/20 15:14:55;;;;;;;14.63;7.97;;;43.90;33.40;;;;;;8258078;28;20033;-80
2022/07/20 15:18:55;;;;;;;16.35;8.48;;;42.90;38.40;;;;;;8259596;28;20636;-79
2022/07/20 15:22:56;;;;;;;14.40;8.90;;;40.20;42.00;;;;;;8254668;28;20085;-79
2022/07/20 15:26:57;;;;;;;12.05;8.40;;;37.80;45.40;;;;;;8255701;28;20421;-79
2022/07/20 15:30:57;;;;;;;10.73;8.10;;;36.90;47.40;;;;;;8265721;28;20105;-79
2022/07/20 15:34:58;;;;;;;11.20;8.15;;;36.60;48.00;;;;;;8263337;28;20113;-79
2022/07/20 15:38:58;;;;;;;10.75;7.95;;;36.80;48.20;;;;;;8263564;28;20038;-79
2022/07/20 15:42:59;;;;;;;8.95;7.78;;;38.50;44.70;;;;;;8263865;28;20037;-80
2022/07/20 15:46:59;;;;;;;9.85;7.43;;;37.20;46.30;;;;;;8260533;28;20053;-79
2022/07/20 15:51:00;;;;;;;18.35;8.85;;;36.20;49.40;;;;;;8256559;28;20034;-79
2022/07/20 15:55:01;;;;;;;12.38;8.05;;;36.20;48.10;;;;;;8260689;28;20031;-79
2022/07/20 15:59:01;;;;;;;10.32;7.28;;;35.90;49.10;;;;;;8260784;28;20129;-79
2022/07/20 16:03:02;;;;;;;9.80;7.97;;;35.80;48.10;;;;;;8256486;28;20061;-79
2022/07/20 16:07:03;;;;;;;9.20;7.85;;;35.20;51.00;;;;;;8261676;28;20513;-79
2022/07/20 16:11:05;;;;;;;13.00;7.38;;;35.20;48.90;;;;;;8261924;28;20033;-79
2022/07/20 16:15:07;;;;;;;10.15;7.07;;;35.40;50.40;;;;;;8261149;28;20053;-79
2022/07/20 16:19:07;;;;;;;8.65;7.10;;;35.50;50.20;;;;;;8262821;28;20048;-79
2022/07/20 16:23:09;;;;;;;14.32;7.70;;;35.50;48.50;;;;;;8262431;28;20030;-79
2022/07/20 16:27:09;;;;;;;13.32;7.82;;;34.90;50.50;;;;;;8258546;28;20072;-80
2022/07/20 16:31:10;;;;;;;11.52;7.85;;;34.70;50.50;;;;;;8263328;28;20060;-80
2022/07/20 16:35:11;;;;;;;10.00;6.97;;;34.40;52.20;;;;;;8262197;28;20038;-80
2022/07/20 16:39:12;;;;;;;12.00;7.80;;;34.10;51.50;;;;;;8258056;28;20209;-80
2022/07/20 16:43:12;;;;;;;9.55;7.28;;;33.80;52.10;;;;;;8260773;28;20026;-80
2022/07/20 16:47:13;;;;;;;12.82;7.60;;;33.40;51.10;;;;;;8260400;28;20026;-80
2022/07/20 16:51:14;;;;;;;10.40;7.78;;;33.30;55.50;;;;;;8260393;28;20027;-80
2022/07/20 16:55:14;;;;;;;8.10;7.22;;;33.20;58.80;;;;;;8258999;28;20034;-80
2022/07/20 16:59:15;;;;;;;9.95;7.93;;;33.00;59.10;;;;;;8257458;28;20072;-79
2022/07/20 17:03:16;;;;;;;13.05;7.40;;;32.50;55.60;;;;;;8258765;28;20038;-80
2022/07/20 17:07:17;;;;;;;13.05;7.60;;;32.00;57.60;;;;;;8260948;28;20031;-80
2022/07/20 17:11:17;;;;;;;11.73;7.95;;;31.70;58.50;;;;;;8258221;28;20029;-79
2022/07/20 17:15:18;;;;;;;12.90;7.72;;;31.30;59.10;;;;;;8255162;28;20101;-79
2022/07/20 17:19:24;;;;;;;11.95;7.95;;;31.00;60.70;;;;;;8259313;28;20030;-80
2022/07/20 17:23:25;;;;;;;14.48;7.70;;;30.70;60.80;;;;;;8259956;28;20379;-80
2022/07/20 17:27:26;;;;;;;14.20;7.82;;;30.40;62.50;;;;;;8256556;28;20015;-79
2022/07/20 17:31:26;;;;;;;13.38;8.00;;;30.20;63.20;;;;;;8253386;28;20391;-79
2022/07/20 17:35:27;;;;;;;10.90;8.15;;;30.00;65.90;;;;;;8257261;28;20041;-79
2022/07/20 17:39:27;;;;;;;11.02;8.40;;;29.60;65.70;;;;;;8260882;28;20041;-79
2022/07/20 17:43:28;;;;;;;10.73;8.27;;;29.30;67.60;;;;;;8260535;28;20033;-80
2022/07/20 17:47:28;;;;;;;12.60;9.60;;;29.30;68.10;;;;;;8261699;28;20553;-80
2022/07/20 17:51:29;;;;;;;12.57;8.48;;;29.10;68.50;;;;;;8260849;28;20015;-79
2022/07/20 17:55:29;;;;;;;11.65;7.35;;;29.00;67.70;;;;;;8243988;28;20037;-79
2022/07/20 17:59:31;;;;;;;13.70;6.53;;;28.80;66.80;;;;;;8245611;28;20442;-79
2022/07/20 18:03:32;;;;;;;13.43;7.68;;;28.50;70.90;;;;;;8254063;28;20033;-80
2022/07/20 18:07:33;;;;;;;9.55;7.95;;;28.00;73.10;;;;;;8256770;28;20037;-78
2022/07/20 18:11:33;;;;;;;16.42;8.40;;;27.40;79.70;;;;;;8253600;28;20018;-81
2022/07/20 18:15:34;;;;;;;15.25;8.57;;;26.70;85.50;;;;;;8258112;28;20027;-81
2022/07/20 18:19:36;;;;;;;11.50;8.52;;;26.00;91.40;;;;;;8277824;28;20029;-80
2022/07/20 18:23:36;;;;;;;10.35;7.18;;;25.70;92.20;;;;;;8251482;28;20027;-80
2022/07/20 18:27:37;;;;;;;9.32;7.00;;;25.20;94.60;;;;;;8258304;28;20104;-80
2022/07/20 18:31:38;;;;;;;8.00;6.63;;;24.90;97.00;;;;;;8248549;28;20031;-80
2022/07/20 18:35:39;;;;;;;8.18;5.70;;;24.60;96.70;;;;;;8269232;28;20112;-80
2022/07/20 18:39:40;;;;;;;7.50;5.57;;;24.60;98.00;;;;;;8257113;28;20042;-80
2022/07/20 18:43:40;;;;;;;11.85;7.30;;;24.40;98.10;;;;;;8258851;28;20030;-79
2022/07/20 18:47:42;;;;;;;15.52;10.07;;;24.00;99.90;;;;;;8249085;28;20030;-79
2022/07/20 18:51:42;;;;;;;12.05;7.78;;;23.40;99.90;;;;;;8261298;28;20098;-80
2022/07/20 18:55:43;;;;;;;8.25;7.43;;;22.40;99.90;;;;;;8257863;28;20058;-80
2022/07/20 18:59:43;;;;;;;9.70;4.50;;;21.40;99.90;;;;;;8256148;28;20478;-80
2022/07/20 19:03:44;;;;;;;4.90;4.28;;;20.20;99.90;;;;;;8257756;28;20022;-79
2022/07/20 19:11:47;;;;;;;6.82;4.80;;;19.10;99.90;;;;;;8227818;28;20051;-78
2022/07/20 19:15:48;;;;;;;5.88;5.18;;;18.90;99.90;;;;;;8228643;28;20069;-79
2022/07/20 19:19:48;;;;;;;10.65;5.18;;;18.70;99.90;;;;;;8227637;28;20027;-78
2022/07/20 19:23:49;;;;;;;7.70;5.35;;;18.70;99.90;;;;;;8227364;28;20406;-78
2022/07/20 19:27:50;;;;;;;7.47;5.00;;;18.60;99.90;;;;;;8229360;28;20023;-77
2022/07/20 19:31:50;;;;;;;7.85;5.00;;;18.70;99.90;;;;;;8222821;28;20023;-78
2022/07/20 19:35:53;;;;;;;6.85;4.85;;;18.70;99.90;;;;;;8227344;28;20027;-77
2022/07/20 19:39:53;;;;;;;7.30;5.15;;;18.80;99.90;;;;;;8228651;28;20400;-78
2022/07/20 19:43:54;;;;;;;5.75;4.78;;;18.80;99.90;;;;;;8221841;28;20027;-78
2022/07/20 19:47:59;;;;;;;5.32;4.75;;;18.80;99.90;;;;;;8228696;28;20019;-78
2022/07/20 19:51:59;;;;;;;5.93;4.65;;;19.00;99.90;;;;;;8228416;28;20022;-79
2022/07/20 19:56:00;;;;;;;7.85;5.03;;;19.00;99.90;;;;;;8229952;28;20027;-79
2022/07/20 20:00:01;;;;;;;7.68;5.10;;;19.10;99.90;;;;;;8228841;28;20058;-79
2022/07/20 20:04:02;;;;;;;6.50;4.88;;;19.10;99.90;;;;;;8229311;28;20119;-79
2022/07/20 20:08:03;;;;;;;6.90;5.90;;;19.30;99.90;;;;;;8231782;28;20085;-79
2022/07/20 20:12:05;;;;;;;10.52;5.07;;;19.20;99.90;;;;;;8229135;28;20388;-79
2022/07/20 20:16:06;;;;;;;7.03;5.03;;;19.10;99.90;;;;;;8236739;28;20023;-78
2022/07/20 20:20:07;;;;;;;6.95;5.50;;;19.00;99.90;;;;;;8235688;28;20034;-77
2022/07/20 20:24:08;;;;;;;7.10;5.53;;;19.10;99.90;;;;;;8236615;28;20093;-80
2022/07/20 20:28:08;;;;;;;6.07;4.95;;;19.00;99.90;;;;;;8235385;28;20135;-79
2022/07/20 20:32:09;;;;;;;5.63;5.05;;;18.90;99.90;;;;;;8235495;28;20034;-80
2022/07/20 20:36:10;;;;;;;9.63;6.00;;;19.10;99.90;;;;;;8235427;28;20026;-79
2022/07/20 20:40:11;;;;;;;9.55;5.78;;;19.20;99.90;;;;;;8252292;28;20086;-78
2022/07/20 20:44:12;;;;;;;7.88;5.80;;;19.20;99.90;;;;;;8231589;28;20038;-79
2022/07/20 20:48:13;;;;;;;7.30;5.50;;;19.20;99.90;;;;;;8231500;28;20019;-80
2022/07/20 20:52:14;;;;;;;7.47;6.40;;;19.30;99.90;;;;;;8231271;28;20550;-80
2022/07/20 20:56:15;;;;;;;7.68;6.25;;;19.40;99.90;;;;;;8231124;28;20027;-79
2022/07/20 21:00:17;;;;;;;9.75;6.15;;;19.30;99.90;;;;;;8230867;28;20428;-79